Strona główna
METAR-TAF:

METAR-TAF

Lotnisko :

Port lotniczy Pau Pyrénées

Pau, Francja

Szerokość geograficzna: 43-23N, Długość geograficzna: 000-25W, wysokość: 188 m

Aktualna obserwacja pogody

Raport powstał 29 minut temu, godzina 05:30 UTC
Wiatr 4 kt od wschodnio-północny wschód
Temperatura 5°C
Wilgotność 93%
Ciśnienie 1026 hPa
Widzialność 10 km lub więcej

METAR: LFBP 190530Z AUTO 07004KT 9999 BKN086/// ///TCU 05/04 Q1026 BECMG NSC

czas: 06:59 (05:59 UTC)

Prognoza

Raport powstał 59 minut temu, godzina 05:00 UTC
Prognoza ważna od 19 godzina 06 UTC do 20 godzina 06 UTC
Wiatr 10 kt od północny wschód
Widzialność 10 km lub więcej
Brak chmur poniżej 1500 m i brak chmur cumulonimbus
Przejściowo
od 20 godzina 03 UTC do 20 godzina 06 UTC
Widzialność: 8000 m
Przerywane chmury na wysokości 1200 ft

TAF: LFBP 190500Z 1906/2006 04010KT CAVOK TEMPO 2003/2006 8000 BKN012

Obserwacja i prognoza pogody dla ponad 4000 lotnisk (raport METAR i TAF).

Dostępne stacje oznaczono żółtymi i czerwonymi punktami na mapie.

Najedź kursorem aby zobaczyć nazwę stacji.

Kliknij aby zobaczyć obserwacje i prognozy pogody.

Aby zmienić mapę: kliknij na zielony przycisk z czarnym krzyżykiem, aby powiększyć; na zielony przycisk z myślnikiem, aby pomniejszyć; na zielone strzałki, aby przejść do map sąsiednich.


METAR-TAF: